sensor_id;sensor_type;location;lat;lon;timestamp;pressure;altitude;pressure_sealevel;temperature
28803;BMP280;15949;55.656;37.422;2023-08-12T00:00:13;99668.25;;;19.40
28803;BMP280;15949;55.656;37.422;2023-08-12T00:05:19;99669.00;;;19.40
28803;BMP280;15949;55.656;37.422;2023-08-12T00:10:25;99687.88;;;19.46
28803;BMP280;15949;55.656;37.422;2023-08-12T00:15:30;99670.50;;;19.41
28803;BMP280;15949;55.656;37.422;2023-08-12T00:20:36;99667.50;;;19.43
28803;BMP280;15949;55.656;37.422;2023-08-12T00:25:43;99665.97;;;19.42
28803;BMP280;15949;55.656;37.422;2023-08-12T00:30:48;99661.81;;;19.41
28803;BMP280;15949;55.656;37.422;2023-08-12T00:35:54;99674.31;;;19.44
28803;BMP280;15949;55.656;37.422;2023-08-12T00:41:00;99673.91;;;19.42
28803;BMP280;15949;55.656;37.422;2023-08-12T00:46:05;99678.47;;;19.38
28803;BMP280;15949;55.656;37.422;2023-08-12T00:51:11;99679.59;;;19.36
28803;BMP280;15949;55.656;37.422;2023-08-12T00:56:17;99677.75;;;19.33
28803;BMP280;15949;55.656;37.422;2023-08-12T01:01:23;99654.00;;;19.26
28803;BMP280;15949;55.656;37.422;2023-08-12T01:06:29;99664.94;;;19.28
28803;BMP280;15949;55.656;37.422;2023-08-12T01:17:00;99693.59;;;19.37
28803;BMP280;15949;55.656;37.422;2023-08-12T01:22:10;99682.25;;;19.36
28803;BMP280;15949;55.656;37.422;2023-08-12T01:27:16;99665.28;;;19.34
28803;BMP280;15949;55.656;37.422;2023-08-12T01:32:39;99655.47;;;19.31
28803;BMP280;15949;55.656;37.422;2023-08-12T01:37:49;99658.53;;;19.26
28803;BMP280;15949;55.656;37.422;2023-08-12T01:42:55;99642.72;;;19.19
28803;BMP280;15949;55.656;37.422;2023-08-12T01:48:01;99637.41;;;19.22
28803;BMP280;15949;55.656;37.422;2023-08-12T01:53:08;99638.16;;;19.23
28803;BMP280;15949;55.656;37.422;2023-08-12T01:58:14;99623.53;;;19.11
28803;BMP280;15949;55.656;37.422;2023-08-12T02:03:19;99635.22;;;19.10
28803;BMP280;15949;55.656;37.422;2023-08-12T02:08:25;99624.28;;;19.08
28803;BMP280;15949;55.656;37.422;2023-08-12T02:13:30;99608.09;;;19.03
28803;BMP280;15949;55.656;37.422;2023-08-12T02:18:36;99609.56;;;19.04
28803;BMP280;15949;55.656;37.422;2023-08-12T02:23:41;99616.34;;;19.08
28803;BMP280;15949;55.656;37.422;2023-08-12T02:28:49;99621.63;;;19.08
28803;BMP280;15949;55.656;37.422;2023-08-12T02:33:55;99610.69;;;19.06
28803;BMP280;15949;55.656;37.422;2023-08-12T02:39:00;99617.50;;;19.07
28803;BMP280;15949;55.656;37.422;2023-08-12T02:44:06;99631.47;;;19.08
28803;BMP280;15949;55.656;37.422;2023-08-12T02:49:11;99638.63;;;19.11
28803;BMP280;15949;55.656;37.422;2023-08-12T02:54:17;99632.22;;;19.12
28803;BMP280;15949;55.656;37.422;2023-08-12T02:59:22;99627.69;;;19.12
28803;BMP280;15949;55.656;37.422;2023-08-12T03:04:30;99634.78;;;19.19
28803;BMP280;15949;55.656;37.422;2023-08-12T03:09:35;99629.47;;;19.22
28803;BMP280;15949;55.656;37.422;2023-08-12T03:14:41;99617.75;;;19.27
28803;BMP280;15949;55.656;37.422;2023-08-12T03:19:47;99593.50;;;19.35
28803;BMP280;15949;55.656;37.422;2023-08-12T03:24:52;99592.31;;;19.47
28803;BMP280;15949;55.656;37.422;2023-08-12T03:29:58;99589.66;;;19.47
28803;BMP280;15949;55.656;37.422;2023-08-12T03:35:04;99584.38;;;19.47
28803;BMP280;15949;55.656;37.422;2023-08-12T03:40:10;99578.59;;;19.56
28803;BMP280;15949;55.656;37.422;2023-08-12T03:45:16;99591.38;;;19.64
28803;BMP280;15949;55.656;37.422;2023-08-12T03:50:21;99595.88;;;19.67
28803;BMP280;15949;55.656;37.422;2023-08-12T03:55:30;99582.59;;;19.74
28803;BMP280;15949;55.656;37.422;2023-08-12T04:00:41;99599.53;;;19.80
28803;BMP280;15949;55.656;37.422;2023-08-12T04:05:48;99610.13;;;19.80
28803;BMP280;15949;55.656;37.422;2023-08-12T04:10:54;99607.94;;;19.72
28803;BMP280;15949;55.656;37.422;2023-08-12T04:16:00;99605.38;;;19.65
28803;BMP280;15949;55.656;37.422;2023-08-12T04:21:06;99607.38;;;19.50
28803;BMP280;15949;55.656;37.422;2023-08-12T04:26:11;99616.13;;;19.44
28803;BMP280;15949;55.656;37.422;2023-08-12T04:31:17;99595.69;;;19.44
28803;BMP280;15949;55.656;37.422;2023-08-12T04:36:22;99585.88;;;19.48
28803;BMP280;15949;55.656;37.422;2023-08-12T04:41:28;99612.19;;;19.66
28803;BMP280;15949;55.656;37.422;2023-08-12T04:46:34;99623.06;;;19.71
28803;BMP280;15949;55.656;37.422;2023-08-12T04:51:40;99631.09;;;19.61
28803;BMP280;15949;55.656;37.422;2023-08-12T04:56:45;99634.50;;;19.58
28803;BMP280;15949;55.656;37.422;2023-08-12T05:01:51;99623.53;;;19.59
28803;BMP280;15949;55.656;37.422;2023-08-12T05:06:56;99637.16;;;19.58
28803;BMP280;15949;55.656;37.422;2023-08-12T05:12:02;99621.69;;;19.56
28803;BMP280;15949;55.656;37.422;2023-08-12T05:17:08;99593.41;;;19.50
28803;BMP280;15949;55.656;37.422;2023-08-12T05:22:13;99563.13;;;19.54
28803;BMP280;15949;55.656;37.422;2023-08-12T05:27:19;99548.03;;;19.55
28803;BMP280;15949;55.656;37.422;2023-08-12T05:32:24;99562.78;;;19.52
28803;BMP280;15949;55.656;37.422;2023-08-12T05:37:30;99556.50;;;19.35
28803;BMP280;15949;55.656;37.422;2023-08-12T05:42:36;99534.66;;;19.28
28803;BMP280;15949;55.656;37.422;2023-08-12T05:47:41;99515.66;;;19.40
28803;BMP280;15949;55.656;37.422;2023-08-12T05:52:47;99521.63;;;19.48
28803;BMP280;15949;55.656;37.422;2023-08-12T05:57:52;99504.63;;;19.49
28803;BMP280;15949;55.656;37.422;2023-08-12T06:02:58;99499.72;;;19.51
28803;BMP280;15949;55.656;37.422;2023-08-12T06:08:04;99501.56;;;19.54
28803;BMP280;15949;55.656;37.422;2023-08-12T06:13:09;99506.09;;;19.53
28803;BMP280;15949;55.656;37.422;2023-08-12T06:18:15;99511.38;;;19.53
28803;BMP280;15949;55.656;37.422;2023-08-12T06:23:20;99508.72;;;19.57
28803;BMP280;15949;55.656;37.422;2023-08-12T06:28:26;99516.25;;;19.62
28803;BMP280;15949;55.656;37.422;2023-08-12T06:33:31;99515.75;;;19.70
28803;BMP280;15949;55.656;37.422;2023-08-12T06:38:37;99514.47;;;19.85
28803;BMP280;15949;55.656;37.422;2023-08-12T06:43:43;99509.91;;;19.86
28803;BMP280;15949;55.656;37.422;2023-08-12T06:48:48;99498.53;;;19.89
28803;BMP280;15949;55.656;37.422;2023-08-12T06:53:54;99508.72;;;19.90
28803;BMP280;15949;55.656;37.422;2023-08-12T06:58:59;99516.88;;;20.06
28803;BMP280;15949;55.656;37.422;2023-08-12T07:04:05;99519.53;;;20.06
28803;BMP280;15949;55.656;37.422;2023-08-12T07:09:10;99505.19;;;20.04
28803;BMP280;15949;55.656;37.422;2023-08-12T07:14:16;99510.72;;;20.13
28803;BMP280;15949;55.656;37.422;2023-08-12T07:19:22;99512.06;;;20.28
28803;BMP280;15949;55.656;37.422;2023-08-12T07:24:28;99504.63;;;20.46
28803;BMP280;15949;55.656;37.422;2023-08-12T07:29:33;99493.72;;;20.67
28803;BMP280;15949;55.656;37.422;2023-08-12T07:34:39;99486.47;;;20.71
28803;BMP280;15949;55.656;37.422;2023-08-12T07:39:45;99504.13;;;20.81
28803;BMP280;15949;55.656;37.422;2023-08-12T07:44:50;99501.53;;;20.74
28803;BMP280;15949;55.656;37.422;2023-08-12T07:49:56;99524.16;;;20.82
28803;BMP280;15949;55.656;37.422;2023-08-12T07:55:02;99539.59;;;20.87
28803;BMP280;15949;55.656;37.422;2023-08-12T08:00:08;99547.19;;;20.85
28803;BMP280;15949;55.656;37.422;2023-08-12T08:05:15;99539.97;;;20.63
28803;BMP280;15949;55.656;37.422;2023-08-12T08:10:21;99523.66;;;20.38
28803;BMP280;15949;55.656;37.422;2023-08-12T08:15:26;99511.81;;;20.19
28803;BMP280;15949;55.656;37.422;2023-08-12T08:20:32;99497.06;;;20.18
28803;BMP280;15949;55.656;37.422;2023-08-12T08:25:37;99486.78;;;20.24
28803;BMP280;15949;55.656;37.422;2023-08-12T08:30:43;99492.78;;;20.28
28803;BMP280;15949;55.656;37.422;2023-08-12T08:35:48;99518.00;;;20.36
28803;BMP280;15949;55.656;37.422;2023-08-12T08:40:54;99576.59;;;20.41
28803;BMP280;15949;55.656;37.422;2023-08-12T08:46:01;99560.59;;;20.48
28803;BMP280;15949;55.656;37.422;2023-08-12T08:51:08;99560.06;;;20.60
28803;BMP280;15949;55.656;37.422;2023-08-12T08:56:14;99543.69;;;20.69
28803;BMP280;15949;55.656;37.422;2023-08-12T09:01:20;99520.53;;;20.73
28803;BMP280;15949;55.656;37.422;2023-08-12T09:06:28;99513.22;;;20.80
28803;BMP280;15949;55.656;37.422;2023-08-12T09:11:34;99529.56;;;20.75
28803;BMP280;15949;55.656;37.422;2023-08-12T09:16:40;99519.03;;;20.72
28803;BMP280;15949;55.656;37.422;2023-08-12T09:21:51;99508.06;;;20.70
28803;BMP280;15949;55.656;37.422;2023-08-12T09:26:58;99532.41;;;20.61
28803;BMP280;15949;55.656;37.422;2023-08-12T09:32:18;99559.38;;;20.53
28803;BMP280;15949;55.656;37.422;2023-08-12T09:37:24;99559.81;;;20.51
28803;BMP280;15949;55.656;37.422;2023-08-12T09:42:30;99554.28;;;20.39
28803;BMP280;15949;55.656;37.422;2023-08-12T09:47:35;99546.44;;;20.32
28803;BMP280;15949;55.656;37.422;2023-08-12T09:52:41;99542.72;;;20.29
28803;BMP280;15949;55.656;37.422;2023-08-12T09:57:56;99525.06;;;20.19
28803;BMP280;15949;55.656;37.422;2023-08-12T10:03:04;99507.97;;;20.24
28803;BMP280;15949;55.656;37.422;2023-08-12T10:08:12;99503.72;;;20.30
28803;BMP280;15949;55.656;37.422;2023-08-12T10:13:20;99504.13;;;20.28
28803;BMP280;15949;55.656;37.422;2023-08-12T10:18:28;99498.47;;;20.26
28803;BMP280;15949;55.656;37.422;2023-08-12T10:23:33;99505.72;;;20.22
28803;BMP280;15949;55.656;37.422;2023-08-12T10:28:39;99521.72;;;20.11
28803;BMP280;15949;55.656;37.422;2023-08-12T10:33:45;99527.84;;;20.05
28803;BMP280;15949;55.656;37.422;2023-08-12T10:38:56;99528.56;;;20.09
28803;BMP280;15949;55.656;37.422;2023-08-12T10:44:05;99514.50;;;20.12
28803;BMP280;15949;55.656;37.422;2023-08-12T10:49:11;99525.09;;;20.12
28803;BMP280;15949;55.656;37.422;2023-08-12T10:59:52;99497.59;;;19.72
28803;BMP280;15949;55.656;37.422;2023-08-12T11:05:07;99533.59;;;19.66
28803;BMP280;15949;55.656;37.422;2023-08-12T11:10:16;99583.53;;;19.54
28803;BMP280;15949;55.656;37.422;2023-08-12T11:15:31;99594.94;;;19.47
28803;BMP280;15949;55.656;37.422;2023-08-12T11:20:40;99591.94;;;19.42
28803;BMP280;15949;55.656;37.422;2023-08-12T11:25:46;99584.16;;;19.24
28803;BMP280;15949;55.656;37.422;2023-08-12T11:30:55;99571.78;;;19.10
28803;BMP280;15949;55.656;37.422;2023-08-12T11:36:01;99547.72;;;18.98
28803;BMP280;15949;55.656;37.422;2023-08-12T11:41:06;99545.50;;;18.89
28803;BMP280;15949;55.656;37.422;2023-08-12T11:46:15;99540.25;;;18.82
28803;BMP280;15949;55.656;37.422;2023-08-12T11:51:21;99523.34;;;18.76
28803;BMP280;15949;55.656;37.422;2023-08-12T11:56:26;99512.03;;;18.72
28803;BMP280;15949;55.656;37.422;2023-08-12T12:01:32;99490.53;;;18.70
28803;BMP280;15949;55.656;37.422;2023-08-12T12:06:38;99482.25;;;18.68
28803;BMP280;15949;55.656;37.422;2023-08-12T12:11:44;99436.63;;;18.68
28803;BMP280;15949;55.656;37.422;2023-08-12T12:16:49;99422.75;;;18.53
28803;BMP280;15949;55.656;37.422;2023-08-12T12:21:56;99425.41;;;18.53
28803;BMP280;15949;55.656;37.422;2023-08-12T12:27:01;99444.59;;;18.57
28803;BMP280;15949;55.656;37.422;2023-08-12T12:32:08;99424.56;;;18.60
28803;BMP280;15949;55.656;37.422;2023-08-12T12:37:14;99435.97;;;18.53
28803;BMP280;15949;55.656;37.422;2023-08-12T12:42:19;99479.31;;;18.52
28803;BMP280;15949;55.656;37.422;2023-08-12T12:47:25;99490.22;;;18.61
28803;BMP280;15949;55.656;37.422;2023-08-12T12:52:31;99479.28;;;18.55
28803;BMP280;15949;55.656;37.422;2023-08-12T12:57:36;99478.53;;;18.55
28803;BMP280;15949;55.656;37.422;2023-08-12T13:02:42;99454.34;;;18.64
28803;BMP280;15949;55.656;37.422;2023-08-12T13:07:48;99476.53;;;18.80
28803;BMP280;15949;55.656;37.422;2023-08-12T13:12:53;99475.81;;;18.73
28803;BMP280;15949;55.656;37.422;2023-08-12T13:17:59;99469.09;;;18.61
28803;BMP280;15949;55.656;37.422;2023-08-12T13:23:04;99459.53;;;18.78
28803;BMP280;15949;55.656;37.422;2023-08-12T13:28:10;99469.31;;;18.84
28803;BMP280;15949;55.656;37.422;2023-08-12T13:33:16;99460.19;;;18.92
28803;BMP280;15949;55.656;37.422;2023-08-12T13:38:21;99445.06;;;18.96
28803;BMP280;15949;55.656;37.422;2023-08-12T13:43:27;99426.47;;;19.07
28803;BMP280;15949;55.656;37.422;2023-08-12T13:48:33;99412.81;;;19.15
28803;BMP280;15949;55.656;37.422;2023-08-12T13:53:38;99407.78;;;19.28
28803;BMP280;15949;55.656;37.422;2023-08-12T13:58:44;99406.16;;;19.38
28803;BMP280;15949;55.656;37.422;2023-08-12T14:03:49;99414.50;;;19.32
28803;BMP280;15949;55.656;37.422;2023-08-12T14:08:55;99405.97;;;19.21
28803;BMP280;15949;55.656;37.422;2023-08-12T14:14:00;99389.84;;;19.05
28803;BMP280;15949;55.656;37.422;2023-08-12T14:19:06;99382.34;;;19.04
28803;BMP280;15949;55.656;37.422;2023-08-12T14:24:12;99379.19;;;19.19
28803;BMP280;15949;55.656;37.422;2023-08-12T14:29:18;99382.38;;;19.38
28803;BMP280;15949;55.656;37.422;2023-08-12T14:34:24;99381.03;;;19.56
28803;BMP280;15949;55.656;37.422;2023-08-12T14:39:30;99351.16;;;19.86
28803;BMP280;15949;55.656;37.422;2023-08-12T14:44:35;99348.91;;;19.88
28803;BMP280;15949;55.656;37.422;2023-08-12T14:49:41;99364.56;;;20.02
28803;BMP280;15949;55.656;37.422;2023-08-12T14:54:46;99361.41;;;19.84
28803;BMP280;15949;55.656;37.422;2023-08-12T14:59:52;99367.22;;;19.72
28803;BMP280;15949;55.656;37.422;2023-08-12T15:04:59;99369.31;;;19.87
28803;BMP280;15949;55.656;37.422;2023-08-12T15:10:05;99372.50;;;19.72
28803;BMP280;15949;55.656;37.422;2023-08-12T15:15:12;99383.09;;;19.72
28803;BMP280;15949;55.656;37.422;2023-08-12T15:20:17;99382.97;;;19.82
28803;BMP280;15949;55.656;37.422;2023-08-12T15:25:23;99399.78;;;19.69
28803;BMP280;15949;55.656;37.422;2023-08-12T15:30:29;99411.16;;;19.66
28803;BMP280;15949;55.656;37.422;2023-08-12T15:35:34;99405.88;;;19.66
28803;BMP280;15949;55.656;37.422;2023-08-12T15:40:40;99402.41;;;19.69
28803;BMP280;15949;55.656;37.422;2023-08-12T15:45:45;99381.16;;;19.76
28803;BMP280;15949;55.656;37.422;2023-08-12T15:50:51;99380.31;;;19.82
28803;BMP280;15949;55.656;37.422;2023-08-12T15:55:57;99386.00;;;19.81
28803;BMP280;15949;55.656;37.422;2023-08-12T16:01:02;99379.25;;;19.80
28803;BMP280;15949;55.656;37.422;2023-08-12T16:06:09;99375.06;;;19.79
28803;BMP280;15949;55.656;37.422;2023-08-12T16:11:14;99378.50;;;19.76
28803;BMP280;15949;55.656;37.422;2023-08-12T16:16:20;99372.19;;;19.70
28803;BMP280;15949;55.656;37.422;2023-08-12T16:21:25;99381.59;;;19.71
28803;BMP280;15949;55.656;37.422;2023-08-12T16:26:31;99384.25;;;19.71
28803;BMP280;15949;55.656;37.422;2023-08-12T16:31:37;99376.59;;;19.80
28803;BMP280;15949;55.656;37.422;2023-08-12T16:36:42;99374.72;;;19.77
28803;BMP280;15949;55.656;37.422;2023-08-12T16:41:48;99368.03;;;19.69
28803;BMP280;15949;55.656;37.422;2023-08-12T16:46:53;99347.34;;;19.60
28803;BMP280;15949;55.656;37.422;2023-08-12T16:51:59;99349.78;;;19.48
28803;BMP280;15949;55.656;37.422;2023-08-12T16:57:04;99352.16;;;19.39
28803;BMP280;15949;55.656;37.422;2023-08-12T17:02:10;99351.88;;;19.29
28803;BMP280;15949;55.656;37.422;2023-08-12T17:07:15;99363.31;;;19.19
28803;BMP280;15949;55.656;37.422;2023-08-12T17:12:21;99359.56;;;19.13
28803;BMP280;15949;55.656;37.422;2023-08-12T17:17:27;99360.34;;;19.14
28803;BMP280;15949;55.656;37.422;2023-08-12T17:22:32;99366.06;;;19.12
28803;BMP280;15949;55.656;37.422;2023-08-12T17:27:38;99374.75;;;19.06
28803;BMP280;15949;55.656;37.422;2023-08-12T17:32:43;99369.41;;;19.13
28803;BMP280;15949;55.656;37.422;2023-08-12T17:37:49;99369.41;;;19.16
28803;BMP280;15949;55.656;37.422;2023-08-12T17:42:54;99365.56;;;19.17
28803;BMP280;15949;55.656;37.422;2023-08-12T17:48:01;99370.88;;;19.17
28803;BMP280;15949;55.656;37.422;2023-08-12T17:53:09;99373.09;;;19.22
28803;BMP280;15949;55.656;37.422;2023-08-12T17:58:15;99360.94;;;19.28
28803;BMP280;15949;55.656;37.422;2023-08-12T18:03:20;99360.50;;;19.33
28803;BMP280;15949;55.656;37.422;2023-08-12T18:08:26;99360.50;;;19.33
28803;BMP280;15949;55.656;37.422;2023-08-12T18:13:31;99363.06;;;19.41
28803;BMP280;15949;55.656;37.422;2023-08-12T18:18:37;99357.03;;;19.44
28803;BMP280;15949;55.656;37.422;2023-08-12T18:23:43;99357.69;;;19.48
28803;BMP280;15949;55.656;37.422;2023-08-12T18:28:48;99366.69;;;19.54
28803;BMP280;15949;55.656;37.422;2023-08-12T18:33:54;99368.94;;;19.55
28803;BMP280;15949;55.656;37.422;2023-08-12T18:38:59;99366.69;;;19.54
28803;BMP280;15949;55.656;37.422;2023-08-12T18:44:05;99358.75;;;19.57
28803;BMP280;15949;55.656;37.422;2023-08-12T18:49:12;99349.69;;;19.55
28803;BMP280;15949;55.656;37.422;2023-08-12T18:54:18;99346.69;;;19.53
28803;BMP280;15949;55.656;37.422;2023-08-12T18:59:25;99340.69;;;19.49
28803;BMP280;15949;55.656;37.422;2023-08-12T19:04:30;99347.19;;;19.41
28803;BMP280;15949;55.656;37.422;2023-08-12T19:09:36;99342.72;;;19.38
28803;BMP280;15949;55.656;37.422;2023-08-12T19:14:42;99356.03;;;19.30
28803;BMP280;15949;55.656;37.422;2023-08-12T19:19:47;99342.84;;;19.27
28803;BMP280;15949;55.656;37.422;2023-08-12T19:24:53;99349.56;;;19.35
28803;BMP280;15949;55.656;37.422;2023-08-12T19:29:59;99355.88;;;19.41
28803;BMP280;15949;55.656;37.422;2023-08-12T19:35:05;99353.19;;;19.45
28803;BMP280;15949;55.656;37.422;2023-08-12T19:40:11;99338.47;;;19.47
28803;BMP280;15949;55.656;37.422;2023-08-12T19:45:17;99336.56;;;19.48
28803;BMP280;15949;55.656;37.422;2023-08-12T19:50:22;99341.78;;;19.51
28803;BMP280;15949;55.656;37.422;2023-08-12T19:55:28;99341.41;;;19.53
28803;BMP280;15949;55.656;37.422;2023-08-12T20:00:34;99359.56;;;19.51
28803;BMP280;15949;55.656;37.422;2023-08-12T20:05:39;99354.00;;;19.42
28803;BMP280;15949;55.656;37.422;2023-08-12T20:10:45;99350.66;;;19.38
28803;BMP280;15949;55.656;37.422;2023-08-12T20:15:50;99349.53;;;19.39
28803;BMP280;15949;55.656;37.422;2023-08-12T20:20:59;99350.97;;;19.43
28803;BMP280;15949;55.656;37.422;2023-08-12T20:26:05;99340.06;;;19.38
28803;BMP280;15949;55.656;37.422;2023-08-12T20:31:10;99337.47;;;19.34
28803;BMP280;15949;55.656;37.422;2023-08-12T20:36:16;99331.50;;;19.30
28803;BMP280;15949;55.656;37.422;2023-08-12T20:41:22;99322.84;;;19.26
28803;BMP280;15949;55.656;37.422;2023-08-12T20:46:27;99328.97;;;19.19
28803;BMP280;15949;55.656;37.422;2023-08-12T20:51:33;99333.13;;;19.17
28803;BMP280;15949;55.656;37.422;2023-08-12T20:56:39;99339.13;;;19.21
28803;BMP280;15949;55.656;37.422;2023-08-12T21:01:45;99322.56;;;19.17
28803;BMP280;15949;55.656;37.422;2023-08-12T21:06:51;99331.69;;;19.12
28803;BMP280;15949;55.656;37.422;2023-08-12T21:12:02;99323.81;;;19.05
28803;BMP280;15949;55.656;37.422;2023-08-12T21:17:08;99321.25;;;18.98
28803;BMP280;15949;55.656;37.422;2023-08-12T21:22:14;99329.63;;;18.90
28803;BMP280;15949;55.656;37.422;2023-08-12T21:27:20;99319.84;;;18.87
28803;BMP280;15949;55.656;37.422;2023-08-12T21:32:25;99316.13;;;18.84
28803;BMP280;15949;55.656;37.422;2023-08-12T21:37:31;99312.38;;;18.78
28803;BMP280;15949;55.656;37.422;2023-08-12T21:42:36;99313.97;;;18.72
28803;BMP280;15949;55.656;37.422;2023-08-12T21:47:42;99307.94;;;18.72
28803;BMP280;15949;55.656;37.422;2023-08-12T21:52:48;99309.06;;;18.71
28803;BMP280;15949;55.656;37.422;2023-08-12T21:57:53;99307.22;;;18.64
28803;BMP280;15949;55.656;37.422;2023-08-12T22:02:59;99304.22;;;18.62
28803;BMP280;15949;55.656;37.422;2023-08-12T22:08:05;99301.31;;;18.49
28803;BMP280;15949;55.656;37.422;2023-08-12T22:13:11;99292.41;;;18.36
28803;BMP280;15949;55.656;37.422;2023-08-12T22:18:17;99289.88;;;18.19
28803;BMP280;15949;55.656;37.422;2023-08-12T22:23:23;99291.78;;;18.15
28803;BMP280;15949;55.656;37.422;2023-08-12T22:28:28;99288.81;;;18.06
28803;BMP280;15949;55.656;37.422;2023-08-12T22:33:34;99284.75;;;17.98
28803;BMP280;15949;55.656;37.422;2023-08-12T22:38:39;99273.50;;;17.90
28803;BMP280;15949;55.656;37.422;2023-08-12T22:43:45;99278.41;;;17.85
28803;BMP280;15949;55.656;37.422;2023-08-12T22:48:51;99274.69;;;17.82
28803;BMP280;15949;55.656;37.422;2023-08-12T22:53:56;99276.59;;;17.78
28803;BMP280;15949;55.656;37.422;2023-08-12T22:59:03;99281.47;;;17.76
28803;BMP280;15949;55.656;37.422;2023-08-12T23:04:09;99275.47;;;17.75
28803;BMP280;15949;55.656;37.422;2023-08-12T23:09:14;99272.47;;;17.73
28803;BMP280;15949;55.656;37.422;2023-08-12T23:14:20;99265.69;;;17.72
28803;BMP280;15949;55.656;37.422;2023-08-12T23:19:26;99265.69;;;17.72
28803;BMP280;15949;55.656;37.422;2023-08-12T23:24:31;99261.56;;;17.68
28803;BMP280;15949;55.656;37.422;2023-08-12T23:29:37;99258.91;;;17.71
28803;BMP280;15949;55.656;37.422;2023-08-12T23:34:43;99258.16;;;17.67
28803;BMP280;15949;55.656;37.422;2023-08-12T23:39:49;99257.44;;;17.67
28803;BMP280;15949;55.656;37.422;2023-08-12T23:44:55;99256.31;;;17.64
28803;BMP280;15949;55.656;37.422;2023-08-12T23:50:00;99249.16;;;17.61
28803;BMP280;15949;55.656;37.422;2023-08-12T23:55:06;99251.44;;;17.59
